createdAt,value
2018-07-24T00:00:16.563Z,20.50
2018-07-24T00:02:45.107Z,20.50
2018-07-24T00:05:13.526Z,20.40
2018-07-24T00:07:41.921Z,20.40
2018-07-24T00:10:10.538Z,20.30
2018-07-24T00:12:38.945Z,20.30
2018-07-24T00:15:08.022Z,20.20
2018-07-24T00:17:36.450Z,20.30
2018-07-24T00:20:07.026Z,20.30
2018-07-24T00:22:35.428Z,20.30
2018-07-24T00:25:04.297Z,20.30
2018-07-24T00:27:32.689Z,20.20
2018-07-24T00:32:29.281Z,20.10
2018-07-24T00:34:57.673Z,20.10
2018-07-24T00:37:26.088Z,20.00
2018-07-24T00:39:54.543Z,20.10
2018-07-24T00:42:22.958Z,20.10
2018-07-24T00:44:51.699Z,20.00
2018-07-24T00:47:20.120Z,19.90
2018-07-24T00:49:48.512Z,19.80
2018-07-24T00:52:16.912Z,19.70
2018-07-24T00:54:45.311Z,19.60
2018-07-24T00:57:13.737Z,19.50
2018-07-24T00:59:42.152Z,19.40
2018-07-24T01:02:10.584Z,19.50
2018-07-24T01:04:39.050Z,19.50
2018-07-24T01:07:08.171Z,19.50
2018-07-24T01:09:36.569Z,19.50
2018-07-24T01:12:04.973Z,19.50
2018-07-24T01:14:33.864Z,19.50
2018-07-24T01:17:02.281Z,19.50
2018-07-24T01:19:30.685Z,19.50
2018-07-24T01:21:59.071Z,19.50
2018-07-24T01:24:27.485Z,19.50
2018-07-24T01:26:55.883Z,19.50
2018-07-24T01:29:24.299Z,19.50
2018-07-24T01:31:53.129Z,19.50
2018-07-24T01:34:21.565Z,19.60
2018-07-24T01:36:49.965Z,19.50
2018-07-24T01:39:18.399Z,19.50
2018-07-24T01:41:46.807Z,19.40
2018-07-24T01:44:15.195Z,19.40
2018-07-24T01:46:43.623Z,19.30
2018-07-24T01:49:12.032Z,19.10
2018-07-24T01:51:40.437Z,19.00
2018-07-24T01:54:09.049Z,19.00
2018-07-24T01:56:37.453Z,18.90
2018-07-24T01:59:05.872Z,18.90
2018-07-24T02:01:34.665Z,19.00
2018-07-24T02:04:03.078Z,19.00
2018-07-24T02:06:31.497Z,19.10
2018-07-24T02:08:59.927Z,19.10
2018-07-24T02:11:28.408Z,19.10
2018-07-24T02:13:56.814Z,19.10
2018-07-24T02:16:25.222Z,19.10
2018-07-24T02:18:54.010Z,19.00
2018-07-24T02:21:22.458Z,18.90
2018-07-24T02:23:51.326Z,18.80
2018-07-24T02:26:20.352Z,18.70
2018-07-24T02:28:48.942Z,18.60
2018-07-24T02:31:17.601Z,18.60
2018-07-24T02:33:46.418Z,18.60
2018-07-24T02:36:14.816Z,18.70
2018-07-24T02:38:43.209Z,18.80
2018-07-24T02:41:11.885Z,18.90
2018-07-24T02:43:40.291Z,18.90
2018-07-24T02:46:08.735Z,18.90
2018-07-24T02:48:37.137Z,18.90
2018-07-24T02:51:05.515Z,18.80
2018-07-24T02:53:33.924Z,18.80
2018-07-24T02:56:02.331Z,18.80
2018-07-24T02:58:30.742Z,18.80
2018-07-24T03:00:59.169Z,18.80
2018-07-24T03:03:28.005Z,18.80
2018-07-24T03:05:56.435Z,18.80
2018-07-24T03:08:25.040Z,18.80
2018-07-24T03:10:53.445Z,18.80
2018-07-24T03:13:21.892Z,18.80
2018-07-24T03:15:50.332Z,18.80
2018-07-24T03:18:18.737Z,18.80
2018-07-24T03:20:47.442Z,18.90
2018-07-24T03:23:15.850Z,18.90
2018-07-24T03:25:44.253Z,18.80
2018-07-24T03:28:12.652Z,18.70
2018-07-24T03:30:41.062Z,18.70
2018-07-24T03:33:09.847Z,18.70
2018-07-24T03:35:38.280Z,18.60
2018-07-24T03:38:06.696Z,18.60
2018-07-24T03:40:35.094Z,18.50
2018-07-24T03:43:03.492Z,18.50
2018-07-24T03:45:32.770Z,18.50
2018-07-24T03:48:01.410Z,18.50
2018-07-24T03:50:29.816Z,18.50
2018-07-24T03:52:58.232Z,18.40
2018-07-24T03:55:27.205Z,18.40
2018-07-24T03:57:55.845Z,18.30
2018-07-24T04:00:24.210Z,18.30
2018-07-24T04:02:52.643Z,18.20
2018-07-24T04:05:21.054Z,18.10
2018-07-24T04:07:51.830Z,18.10
2018-07-24T04:10:21.666Z,18.10
2018-07-24T04:12:50.707Z,18.00
2018-07-24T04:15:19.101Z,18.00
2018-07-24T04:17:47.513Z,18.00
2018-07-24T04:20:15.919Z,17.90
2018-07-24T04:22:44.333Z,17.90
2018-07-24T04:25:12.733Z,18.10
2018-07-24T04:27:41.139Z,18.60
2018-07-24T04:30:09.542Z,19.00
2018-07-24T04:32:37.955Z,19.30
2018-07-24T04:35:06.490Z,19.50
2018-07-24T04:37:34.912Z,19.70
2018-07-24T04:40:03.372Z,19.80
2018-07-24T04:42:32.453Z,19.90
2018-07-24T04:45:00.857Z,20.00
2018-07-24T04:47:29.275Z,20.20
2018-07-24T04:49:57.685Z,20.30
2018-07-24T04:52:26.095Z,20.50
2018-07-24T04:54:54.873Z,20.70
2018-07-24T04:57:23.277Z,20.70
2018-07-24T04:59:51.831Z,20.60
2018-07-24T05:02:20.255Z,20.60
2018-07-24T05:04:48.764Z,20.50
2018-07-24T05:07:17.517Z,20.60
2018-07-24T05:09:46.744Z,20.60
2018-07-24T05:12:15.182Z,20.70
2018-07-24T05:14:43.607Z,20.70
2018-07-24T05:17:12.453Z,20.70
2018-07-24T05:19:40.890Z,20.70
2018-07-24T05:22:09.290Z,20.70
2018-07-24T05:24:38.119Z,20.80
2018-07-24T05:27:06.798Z,20.80
2018-07-24T05:29:35.191Z,20.90
2018-07-24T05:32:03.604Z,20.90
2018-07-24T05:34:32.008Z,20.90
2018-07-24T05:39:28.635Z,20.90
2018-07-24T05:41:57.022Z,21.00
2018-07-24T05:44:25.452Z,21.20
2018-07-24T05:46:53.862Z,21.30
2018-07-24T05:49:22.534Z,21.50
2018-07-24T05:51:50.947Z,21.50
2018-07-24T05:54:19.660Z,21.60
2018-07-24T05:56:48.061Z,21.80
2018-07-24T05:59:16.907Z,22.00
2018-07-24T06:01:45.310Z,22.10
2018-07-24T06:04:25.043Z,22.20
2018-07-24T06:06:53.495Z,22.30
2018-07-24T06:09:22.679Z,22.40
2018-07-24T06:11:51.087Z,22.50
2018-07-24T06:14:19.496Z,22.60
2018-07-24T06:16:47.920Z,22.70
2018-07-24T06:19:16.609Z,22.70
2018-07-24T06:21:45.027Z,22.70
2018-07-24T06:24:13.435Z,22.80
2018-07-24T06:28:11.077Z,22.90
2018-07-24T06:30:40.473Z,22.90
2018-07-24T06:33:09.127Z,23.00
2018-07-24T06:35:37.646Z,23.00
2018-07-24T06:38:06.053Z,23.10
2018-07-24T06:40:34.521Z,23.10
2018-07-24T06:43:02.935Z,23.20
2018-07-24T06:45:31.543Z,23.20
2018-07-24T06:47:59.939Z,23.10
2018-07-24T06:50:28.815Z,23.20
2018-07-24T06:52:57.668Z,23.30
2018-07-24T06:55:26.083Z,23.30
2018-07-24T06:57:54.474Z,23.40
2018-07-24T07:00:22.935Z,23.40
2018-07-24T07:02:51.339Z,23.40
2018-07-24T07:05:19.747Z,23.40
2018-07-24T07:10:16.526Z,23.50
2018-07-24T07:12:45.393Z,23.60
2018-07-24T07:15:13.835Z,23.70
2018-07-24T07:17:42.815Z,23.80
2018-07-24T07:20:11.221Z,23.90
2018-07-24T07:22:39.923Z,23.90
2018-07-24T07:25:08.339Z,23.90
2018-07-24T07:27:36.723Z,24.00
2018-07-24T07:30:05.749Z,24.00
2018-07-24T07:32:34.281Z,24.10
2018-07-24T07:35:02.661Z,24.20
2018-07-24T07:37:31.053Z,24.30
2018-07-24T07:40:00.312Z,24.40
2018-07-24T07:42:28.741Z,24.60
2018-07-24T07:44:57.300Z,24.60
2018-07-24T07:47:25.702Z,24.70
2018-07-24T07:49:54.140Z,24.80
2018-07-24T07:52:22.573Z,24.90
2018-07-24T07:54:51.394Z,25.00
2018-07-24T07:57:19.836Z,25.10
2018-07-24T07:59:48.234Z,25.10
2018-07-24T08:02:16.626Z,25.10
2018-07-24T08:04:45.051Z,25.10
2018-07-24T08:07:13.568Z,25.10
2018-07-24T08:09:42.094Z,25.10
2018-07-24T08:12:10.491Z,25.10
2018-07-24T08:14:38.919Z,25.10
2018-07-24T08:17:07.319Z,25.00
2018-07-24T08:19:35.737Z,25.00
2018-07-24T08:24:32.303Z,25.20
2018-07-24T08:27:00.693Z,25.30
2018-07-24T08:29:29.849Z,25.50
2018-07-24T08:31:58.463Z,25.60
2018-07-24T08:34:26.887Z,25.70
2018-07-24T08:36:55.922Z,25.80
2018-07-24T08:39:24.319Z,25.90
2018-07-24T08:41:52.745Z,26.00
2018-07-24T08:44:21.145Z,26.10
2018-07-24T08:46:49.552Z,26.10
2018-07-24T08:49:18.226Z,26.20
2018-07-24T08:51:46.675Z,26.30
2018-07-24T08:54:15.699Z,26.40
2018-07-24T08:56:44.145Z,26.50
2018-07-24T08:59:12.627Z,26.70
2018-07-24T09:01:41.042Z,26.70
2018-07-24T09:04:09.485Z,26.80
2018-07-24T09:06:37.857Z,26.70
2018-07-24T09:09:09.755Z,26.70
2018-07-24T09:11:38.620Z,26.60
2018-07-24T09:14:07.562Z,26.70
2018-07-24T09:16:36.461Z,26.90
2018-07-24T09:19:05.218Z,27.10
2018-07-24T09:21:34.065Z,27.30
2018-07-24T09:24:02.440Z,27.40
2018-07-24T09:26:30.842Z,27.50
2018-07-24T09:28:59.511Z,27.60
2018-07-24T09:31:27.924Z,27.70
2018-07-24T09:33:56.347Z,27.60
2018-07-24T09:36:24.963Z,27.60
2018-07-24T09:38:53.418Z,27.50
2018-07-24T09:41:21.826Z,27.60
2018-07-24T09:43:50.224Z,27.70
2018-07-24T09:46:19.121Z,27.80
2018-07-24T09:48:47.537Z,27.80
2018-07-24T09:51:15.930Z,27.80
2018-07-24T09:53:44.472Z,27.80
2018-07-24T09:56:12.874Z,27.80
2018-07-24T09:58:41.357Z,27.90
2018-07-24T10:01:15.149Z,27.90
2018-07-24T10:03:43.569Z,28.00
2018-07-24T10:06:11.957Z,28.20
2018-07-24T10:08:40.483Z,28.40
2018-07-24T10:11:09.486Z,28.50
2018-07-24T10:13:37.897Z,28.70
2018-07-24T10:16:06.907Z,28.70
2018-07-24T10:18:35.330Z,28.70
2018-07-24T10:21:03.733Z,28.80
2018-07-24T10:23:32.139Z,28.80
2018-07-24T10:26:00.563Z,28.70
2018-07-24T10:28:29.003Z,28.70
2018-07-24T10:30:57.564Z,28.60
2018-07-24T10:33:26.027Z,28.70
2018-07-24T10:38:22.127Z,28.80
2018-07-24T10:40:50.537Z,29.00
2018-07-24T10:43:18.913Z,29.10
2018-07-24T10:45:47.736Z,29.20
2018-07-24T10:48:16.305Z,29.20
2018-07-24T10:52:13.902Z,29.30
2018-07-24T10:54:42.289Z,29.40
2018-07-24T10:57:10.684Z,29.60
2018-07-24T10:59:39.081Z,29.60
2018-07-24T11:02:07.770Z,29.60
2018-07-24T11:04:36.226Z,29.70
2018-07-24T11:07:04.620Z,29.80
2018-07-24T11:09:33.020Z,30.00
2018-07-24T11:12:01.627Z,30.00
2018-07-24T11:14:30.022Z,30.30
2018-07-24T11:16:58.401Z,30.40
2018-07-24T11:19:26.783Z,30.60
2018-07-24T11:21:55.192Z,30.80
2018-07-24T11:24:23.590Z,30.90
2018-07-24T11:26:51.990Z,30.90
2018-07-24T11:29:20.469Z,31.00
2018-07-24T11:31:48.842Z,31.00
2018-07-24T11:34:17.282Z,30.90
2018-07-24T11:36:45.770Z,30.80
2018-07-24T11:39:14.168Z,30.70
2018-07-24T11:41:42.576Z,30.50
2018-07-24T11:44:11.006Z,30.50
2018-07-24T11:46:39.481Z,30.40
2018-07-24T11:49:08.260Z,30.40
2018-07-24T11:51:36.874Z,30.40
2018-07-24T11:54:05.253Z,30.50
2018-07-24T11:56:33.663Z,30.60
2018-07-24T11:59:02.086Z,30.70
2018-07-24T12:01:30.485Z,30.90
2018-07-24T12:03:58.903Z,31.00
2018-07-24T12:06:27.324Z,31.10
2018-07-24T12:08:55.724Z,31.00
2018-07-24T12:11:24.149Z,31.10
2018-07-24T12:13:52.535Z,31.10
2018-07-24T12:16:20.906Z,31.30
2018-07-24T12:18:49.311Z,31.50
2018-07-24T12:23:45.911Z,31.40
2018-07-24T12:26:14.369Z,31.50
2018-07-24T12:28:42.773Z,31.80
2018-07-24T12:31:11.846Z,32.10
2018-07-24T12:33:40.253Z,32.30
2018-07-24T12:36:08.789Z,32.30
2018-07-24T12:41:05.238Z,32.30
2018-07-24T12:43:34.328Z,32.50
2018-07-24T12:46:02.696Z,32.60
2018-07-24T12:48:31.288Z,32.40
2018-07-24T12:50:59.800Z,32.00
2018-07-24T12:53:28.192Z,31.70
2018-07-24T12:55:56.585Z,31.30
2018-07-24T12:58:24.980Z,31.00
2018-07-24T13:00:53.374Z,30.80
2018-07-24T13:03:21.764Z,30.80
2018-07-24T13:05:50.312Z,30.80
2018-07-24T13:08:18.725Z,31.00
2018-07-24T13:10:47.183Z,31.40
2018-07-24T13:13:15.526Z,31.60
2018-07-24T13:15:43.931Z,31.90
2018-07-24T13:18:12.317Z,32.20
2018-07-24T13:20:40.719Z,32.50
2018-07-24T13:23:09.129Z,32.80
2018-07-24T13:25:37.527Z,33.00
2018-07-24T13:28:05.932Z,33.20
2018-07-24T13:30:34.329Z,33.20
2018-07-24T13:33:02.779Z,33.30
2018-07-24T13:35:31.182Z,33.30
2018-07-24T13:37:59.938Z,33.30
2018-07-24T13:40:28.341Z,33.20
2018-07-24T13:42:56.754Z,33.40
2018-07-24T13:45:25.463Z,33.50
2018-07-24T13:47:53.906Z,33.60
2018-07-24T13:50:22.286Z,33.60
2018-07-24T13:52:50.697Z,33.50
2018-07-24T13:55:19.079Z,33.50
2018-07-24T13:57:47.500Z,33.40
2018-07-24T14:00:16.021Z,33.40
2018-07-24T14:05:12.539Z,33.10
2018-07-24T14:07:40.950Z,33.10
2018-07-24T14:12:37.437Z,32.90
2018-07-24T14:15:05.863Z,32.80
2018-07-24T14:17:34.245Z,32.60
2018-07-24T14:20:02.662Z,32.50
2018-07-24T14:22:31.082Z,32.40
2018-07-24T14:24:59.505Z,32.30
2018-07-24T14:27:27.924Z,32.20
2018-07-24T14:29:56.322Z,32.10
2018-07-24T14:32:24.735Z,32.10
2018-07-24T14:37:21.306Z,32.10
2018-07-24T14:39:49.710Z,32.00
2018-07-24T14:42:18.122Z,31.90
2018-07-24T14:44:46.522Z,31.90
2018-07-24T14:47:15.748Z,31.70
2018-07-24T14:49:44.134Z,31.50
2018-07-24T14:52:12.543Z,31.40
2018-07-24T14:54:40.956Z,31.30
2018-07-24T14:57:09.344Z,31.20
2018-07-24T14:59:37.744Z,31.10
2018-07-24T15:02:06.142Z,31.00
2018-07-24T15:04:34.607Z,30.90
2018-07-24T15:07:02.973Z,30.80
2018-07-24T15:11:59.619Z,30.60
2018-07-24T18:16:08.010Z,29.80
2018-07-24T18:18:36.613Z,29.60
2018-07-24T18:21:05.636Z,29.50
2018-07-24T18:23:34.323Z,29.40
2018-07-24T18:26:03.680Z,29.30
2018-07-24T18:28:32.390Z,29.30
2018-07-24T18:31:01.406Z,29.30
2018-07-24T18:33:30.730Z,29.30
2018-07-24T18:35:59.737Z,29.30
2018-07-24T18:38:28.423Z,29.20
2018-07-24T18:40:57.860Z,28.90
2018-07-24T18:43:26.855Z,28.60
2018-07-24T18:45:55.445Z,28.40
2018-07-24T18:48:24.342Z,28.10
2018-07-24T18:50:52.784Z,28.00
2018-07-24T18:53:21.283Z,27.80
2018-07-24T18:55:49.657Z,27.70
2018-07-24T18:58:18.245Z,27.70
2018-07-24T19:00:47.725Z,27.60
2018-07-24T19:03:16.974Z,27.60
2018-07-24T19:05:45.749Z,27.50
2018-07-24T19:08:15.167Z,27.40
2018-07-24T19:10:44.732Z,27.30
2018-07-24T19:13:13.687Z,27.20
2018-07-24T19:15:42.645Z,27.10
2018-07-24T19:18:11.441Z,27.00
2018-07-24T19:20:40.131Z,26.90
2018-07-24T19:23:08.715Z,26.80
2018-07-24T19:25:38.206Z,26.70
2018-07-24T19:28:07.218Z,26.70
2018-07-24T19:30:35.797Z,26.60
2018-07-24T19:33:05.055Z,26.50
2018-07-24T19:35:33.537Z,26.40
2018-07-24T19:38:02.513Z,26.30
2018-07-24T19:40:31.178Z,26.30
2018-07-24T19:43:00.062Z,26.20
2018-07-24T19:45:28.644Z,26.10
2018-07-24T19:47:57.329Z,26.00
2018-07-24T19:50:25.800Z,26.00
2018-07-24T19:52:54.187Z,25.90
2018-07-24T19:55:23.065Z,25.90
2018-07-24T19:57:52.523Z,25.80
2018-07-24T20:00:21.149Z,25.70
2018-07-24T20:02:50.000Z,25.70
2018-07-24T20:05:19.026Z,25.60
2018-07-24T20:07:47.770Z,25.60
2018-07-24T20:10:16.987Z,25.60
2018-07-24T20:12:45.966Z,25.60
2018-07-24T20:15:19.038Z,25.50
2018-07-24T20:17:48.476Z,25.50
2018-07-24T20:20:18.132Z,25.50
2018-07-24T20:22:47.654Z,25.50
2018-07-24T20:25:16.318Z,25.60
2018-07-24T20:27:45.617Z,25.50
2018-07-24T20:30:15.332Z,25.50
2018-07-24T20:32:43.970Z,25.40
2018-07-24T20:35:12.701Z,25.30
2018-07-24T20:37:41.235Z,25.30
2018-07-24T20:40:10.221Z,25.20
2018-07-24T20:42:38.859Z,25.10
2018-07-24T20:45:07.782Z,25.10
2018-07-24T20:47:38.303Z,25.00
2018-07-24T20:50:07.258Z,25.00
2018-07-24T20:52:35.822Z,24.90
2018-07-24T20:55:04.495Z,24.90
2018-07-24T20:57:34.185Z,24.90
2018-07-24T21:00:03.790Z,24.90
2018-07-24T21:02:33.049Z,24.80
2018-07-24T21:05:02.074Z,24.70
2018-07-24T21:07:30.498Z,24.70
2018-07-24T21:09:59.616Z,24.70
2018-07-24T21:12:28.461Z,24.70
